createdAt,value
2022-12-19T00:00:06.275Z,12.2
2022-12-19T00:05:08.725Z,20.1
2022-12-19T00:10:07.010Z,12.6
2022-12-19T00:15:06.362Z,16.7
2022-12-19T00:20:06.654Z,12.8
2022-12-19T00:25:07.062Z,16.7
2022-12-19T00:30:06.920Z,18.9
2022-12-19T00:35:06.198Z,17.1
2022-12-19T00:40:06.752Z,17.2
2022-12-19T00:45:07.054Z,18.6
2022-12-19T00:50:06.624Z,14.9
2022-12-19T00:55:06.941Z,17.1
2022-12-19T01:00:06.472Z,16.1
2022-12-19T01:05:06.504Z,16.5
2022-12-19T01:10:06.841Z,18.1
2022-12-19T01:15:06.278Z,10.5
2022-12-19T01:20:06.465Z,10.8
2022-12-19T01:25:06.869Z,12
2022-12-19T01:30:06.267Z,12.1
2022-12-19T01:35:06.412Z,14.7
2022-12-19T01:40:06.724Z,14.5
2022-12-19T01:45:06.998Z,20.4
2022-12-19T01:50:06.269Z,19.5
2022-12-19T01:55:06.297Z,18.8
2022-12-19T02:00:06.537Z,9.9
2022-12-19T02:05:06.377Z,10
2022-12-19T02:10:06.808Z,14.4
2022-12-19T02:15:06.159Z,18.5
2022-12-19T02:20:06.982Z,19.2
2022-12-19T02:25:07.064Z,21.3
2022-12-19T02:30:06.967Z,18.3
2022-12-19T02:35:06.871Z,20.8
2022-12-19T02:40:06.654Z,17
2022-12-19T02:45:06.584Z,22.2
2022-12-19T02:50:07.003Z,19.2
2022-12-19T02:55:06.131Z,16.9
2022-12-19T03:00:06.440Z,20.4
2022-12-19T03:05:07.039Z,21.3
2022-12-19T03:10:06.561Z,16.6
2022-12-19T03:15:06.587Z,20.6
2022-12-19T03:20:06.907Z,14.7
2022-12-19T03:25:06.280Z,21.1
2022-12-19T03:30:06.683Z,19.3
2022-12-19T03:35:06.976Z,21
2022-12-19T03:40:06.338Z,20.6
2022-12-19T03:45:06.570Z,19.2
2022-12-19T03:50:06.658Z,19.7
2022-12-19T03:55:07.008Z,16.3
2022-12-19T04:00:06.978Z,17.1
2022-12-19T04:05:06.201Z,16.7
2022-12-19T04:10:06.570Z,16.1
2022-12-19T04:15:07.034Z,16.8
2022-12-19T04:20:07.044Z,16.1
2022-12-19T04:25:06.339Z,14.5
2022-12-19T04:30:06.269Z,13.7
2022-12-19T04:35:06.530Z,12.8
2022-12-19T04:40:06.968Z,16.7
2022-12-19T04:45:06.846Z,15.5
2022-12-19T04:50:06.157Z,15.6
2022-12-19T04:55:06.405Z,14.3
2022-12-19T05:00:06.765Z,13.9
2022-12-19T05:05:06.758Z,11.6
2022-12-19T05:10:06.954Z,12.6
2022-12-19T05:15:06.416Z,12.4
2022-12-19T05:20:06.825Z,14.8
2022-12-19T05:25:06.943Z,14.1
2022-12-19T05:30:06.360Z,15.1
2022-12-19T05:35:06.555Z,14.7
2022-12-19T05:40:06.960Z,14.3
2022-12-19T05:45:06.328Z,14.6
2022-12-19T05:50:06.620Z,15.5
2022-12-19T05:55:06.963Z,13.9
2022-12-19T06:00:06.283Z,18
2022-12-19T06:05:06.165Z,14.3
2022-12-19T06:10:06.343Z,13.2
2022-12-19T06:15:06.658Z,15.8
2022-12-19T06:20:06.928Z,17
2022-12-19T06:25:06.516Z,15.9
2022-12-19T06:30:06.756Z,13.9
2022-12-19T06:35:06.965Z,17.1
2022-12-19T06:40:06.373Z,16
2022-12-19T06:45:06.661Z,15.9
2022-12-19T06:50:06.953Z,17
2022-12-19T06:55:06.325Z,15.3
2022-12-19T07:00:07.135Z,16.7
2022-12-19T07:05:07.061Z,15.9
2022-12-19T07:10:06.455Z,16.3
2022-12-19T07:15:06.905Z,15
2022-12-19T07:20:06.151Z,17.3
2022-12-19T07:25:06.417Z,14
2022-12-19T07:30:06.811Z,14.9
2022-12-19T07:35:06.151Z,20.2
2022-12-19T07:40:06.652Z,20.6
2022-12-19T07:45:06.995Z,17.8
2022-12-19T07:50:06.105Z,17.2
2022-12-19T07:55:06.412Z,16.5
2022-12-19T08:00:06.735Z,11.3
2022-12-19T08:05:06.660Z,12.6
2022-12-19T08:10:06.865Z,15.4
2022-12-19T08:15:06.288Z,14.3
2022-12-19T08:20:06.496Z,13.3
2022-12-19T08:25:06.811Z,16.3
2022-12-19T08:30:07.043Z,17.4
2022-12-19T08:35:06.361Z,18.2
2022-12-19T08:40:07.062Z,15.2
2022-12-19T08:45:06.368Z,14.2
2022-12-19T08:50:06.744Z,12.8
2022-12-19T08:55:07.058Z,12.8
2022-12-19T09:00:06.575Z,13.5
2022-12-19T09:05:06.581Z,12.9
2022-12-19T09:10:06.216Z,12.5
2022-12-19T09:15:06.245Z,11.5
2022-12-19T09:20:06.425Z,14.9
2022-12-19T09:25:06.709Z,12.1
2022-12-19T09:30:07.008Z,13.2
2022-12-19T09:35:06.194Z,12.3
2022-12-19T09:40:06.653Z,11.9
2022-12-19T09:45:06.436Z,10.8
2022-12-19T09:50:06.743Z,15.1
2022-12-19T09:55:06.771Z,12
2022-12-19T10:00:07.003Z,12.1
2022-12-19T10:05:06.680Z,12.8
2022-12-19T10:10:06.977Z,10.7
2022-12-19T10:15:06.353Z,8.2
2022-12-19T10:20:06.433Z,17.3
2022-12-19T10:25:06.238Z,13.8
2022-12-19T10:30:06.448Z,12.5
2022-12-19T10:35:06.286Z,11.1
2022-12-19T10:40:06.198Z,14.2
2022-12-19T10:45:06.502Z,23.6
2022-12-19T10:50:06.859Z,26.8
2022-12-19T10:55:07.096Z,27.2
2022-12-19T11:00:06.665Z,25.5
2022-12-19T11:05:06.664Z,28
2022-12-19T11:10:06.928Z,22.9
2022-12-19T11:15:06.165Z,26.3
2022-12-19T11:20:06.942Z,29
2022-12-19T11:25:06.558Z,24.1
2022-12-19T11:30:07.065Z,26.6
2022-12-19T11:35:06.396Z,26.2
2022-12-19T11:40:06.589Z,25.1
2022-12-19T11:45:07.026Z,20.8
2022-12-19T11:50:06.754Z,29
2022-12-19T11:55:06.268Z,23.6
2022-12-19T12:00:06.898Z,21.9
2022-12-19T12:05:06.300Z,26.9
2022-12-19T12:10:06.164Z,17.5
2022-12-19T12:15:06.795Z,25.7
2022-12-19T12:20:06.497Z,26.5
2022-12-19T12:25:06.177Z,22.5
2022-12-19T12:30:06.986Z,22.3
2022-12-19T12:35:06.707Z,23.8
2022-12-19T12:40:06.199Z,21.8
2022-12-19T12:45:06.902Z,21
2022-12-19T12:50:06.342Z,22.6
2022-12-19T12:55:06.699Z,20.5
2022-12-19T13:00:06.446Z,23.3
2022-12-19T13:05:06.388Z,23.3
2022-12-19T13:10:06.497Z,16.9
2022-12-19T13:15:06.827Z,11.2
2022-12-19T13:20:06.216Z,17.2
2022-12-19T13:25:07.052Z,15.1
2022-12-19T13:30:06.435Z,16.1
2022-12-19T13:35:06.088Z,13
2022-12-19T13:40:06.836Z,20.2
2022-12-19T13:45:06.174Z,17.2
2022-12-19T13:50:06.382Z,16.1
2022-12-19T13:55:06.110Z,18
2022-12-19T14:00:06.565Z,21.7
2022-12-19T14:05:06.281Z,18.6
2022-12-19T14:10:06.713Z,23.5
2022-12-19T14:15:07.020Z,26.1
2022-12-19T14:20:06.355Z,28.9
2022-12-19T14:25:06.820Z,22.6
2022-12-19T14:30:06.991Z,21.6
2022-12-19T14:35:06.647Z,22.4
2022-12-19T14:40:07.090Z,25.1
2022-12-19T14:45:06.310Z,25.1
2022-12-19T14:50:07.030Z,12.3
2022-12-19T14:55:06.353Z,29.3
2022-12-19T15:00:06.648Z,29.2
2022-12-19T15:05:06.375Z,13.8
2022-12-19T15:10:06.702Z,29.6
2022-12-19T15:15:06.936Z,27.9
2022-12-19T15:20:06.228Z,37.1
2022-12-19T15:25:06.546Z,54.6
2022-12-19T15:30:06.272Z,43.5
2022-12-19T15:35:06.141Z,36.9
2022-12-19T15:40:06.523Z,46.4
2022-12-19T15:45:06.724Z,51
2022-12-19T15:50:07.001Z,51.3
2022-12-19T15:55:06.338Z,39.2
2022-12-19T16:00:06.660Z,43.9
2022-12-19T16:05:06.575Z,37.6
2022-12-19T16:10:06.934Z,39.1
2022-12-19T16:15:06.428Z,35.5
2022-12-19T16:20:06.604Z,44.5
2022-12-19T16:25:07.000Z,49.1
2022-12-19T16:30:06.382Z,54
2022-12-19T16:35:06.710Z,56.6
2022-12-19T16:40:06.385Z,63.3
2022-12-19T16:45:06.852Z,68.1
2022-12-19T16:50:07.083Z,74.4
2022-12-19T16:55:06.298Z,69.9
2022-12-19T17:00:06.706Z,77.3
2022-12-19T17:05:06.782Z,55.6
2022-12-19T17:10:06.145Z,54.1
2022-12-19T17:15:06.542Z,59.2
2022-12-19T17:20:06.236Z,48.1
2022-12-19T17:25:06.827Z,53.9
2022-12-19T17:30:06.131Z,51.8
2022-12-19T17:35:06.375Z,65.5
2022-12-19T17:40:06.820Z,60.1
2022-12-19T17:45:07.078Z,51.7
2022-12-19T17:50:06.318Z,49.8
2022-12-19T17:55:06.645Z,60.4
2022-12-19T18:00:07.076Z,64.5
2022-12-19T18:05:06.104Z,72.5
2022-12-19T18:10:06.753Z,72.5
2022-12-19T18:15:07.051Z,68.7
2022-12-19T18:20:06.359Z,80.1
2022-12-19T18:25:06.647Z,63.4
2022-12-19T18:30:06.920Z,69.1
2022-12-19T18:35:06.218Z,75.9
2022-12-19T18:40:06.121Z,78.1
2022-12-19T18:45:06.772Z,65.9
2022-12-19T18:50:06.326Z,82.3
2022-12-19T18:55:06.444Z,107.4
2022-12-19T19:00:06.781Z,89
2022-12-19T19:05:06.145Z,86.1
2022-12-19T19:10:07.075Z,71.9
2022-12-19T19:15:06.352Z,86.6
2022-12-19T19:20:06.889Z,103
2022-12-19T19:25:06.661Z,89.5
2022-12-19T19:30:07.020Z,75.2
2022-12-19T19:35:06.769Z,56
2022-12-19T19:40:06.955Z,45.1
2022-12-19T19:45:06.251Z,39.7
2022-12-19T19:50:06.368Z,37.9
2022-12-19T19:55:06.571Z,47.7
2022-12-19T20:00:07.010Z,67.3
2022-12-19T20:05:06.955Z,79.4
2022-12-19T20:10:06.310Z,92.3
2022-12-19T20:15:06.636Z,87.7
2022-12-19T20:20:06.972Z,90.4
2022-12-19T20:25:06.213Z,98.7
2022-12-19T20:30:06.818Z,91.2
2022-12-19T20:35:06.616Z,85.9
2022-12-19T20:40:06.944Z,67.3
2022-12-19T20:50:06.467Z,67.4
2022-12-19T20:55:06.799Z,71.6
2022-12-19T21:00:06.222Z,63.1
2022-12-19T21:05:06.248Z,65.5
2022-12-19T21:10:06.736Z,64.6
2022-12-19T21:15:07.054Z,55.5
2022-12-19T21:20:06.209Z,53.2
2022-12-19T21:25:06.340Z,41.2
2022-12-19T21:30:06.684Z,31.1
2022-12-19T21:35:06.927Z,29.7
2022-12-19T21:40:06.144Z,37
2022-12-19T21:45:06.083Z,39.8
2022-12-19T21:50:06.349Z,44.6
2022-12-19T21:55:06.708Z,51.2
2022-12-19T22:00:07.227Z,39.7
2022-12-19T22:05:07.039Z,45.7
2022-12-19T22:10:06.363Z,37
2022-12-19T22:15:06.590Z,43.7
2022-12-19T22:20:06.945Z,61.7
2022-12-19T22:25:06.301Z,58.6
2022-12-19T22:30:06.624Z,63.3
2022-12-19T22:35:06.925Z,65.3
2022-12-19T22:40:06.378Z,71
2022-12-19T22:45:06.601Z,72.2
2022-12-19T22:50:06.905Z,77.7
2022-12-19T22:55:06.257Z,82
2022-12-19T23:00:06.531Z,78.2
2022-12-19T23:05:06.439Z,53.2
2022-12-19T23:10:06.973Z,44
2022-12-19T23:15:06.334Z,44.2
2022-12-19T23:20:06.733Z,59.8
2022-12-19T23:25:06.984Z,66.5
2022-12-19T23:30:07.024Z,63.4
2022-12-19T23:35:06.506Z,66.6
2022-12-19T23:40:06.848Z,64.4
2022-12-19T23:45:07.079Z,68.1
2022-12-19T23:50:06.919Z,60.2
2022-12-19T23:55:06.315Z,58.3
